sensor_id;sensor_type;location;lat;lon;timestamp;pressure;altitude;pressure_sealevel;temperature;humidity
2785;BME280;57944;48.722;9.316;2023-04-28T00:02:19;97886.72;;;10.33;100.00
2785;BME280;57944;48.722;9.316;2023-04-28T00:04:51;97881.25;;;10.49;100.00
2785;BME280;57944;48.722;9.316;2023-04-28T00:07:21;97885.22;;;10.59;100.00
2785;BME280;57944;48.722;9.316;2023-04-28T00:09:52;97880.69;;;10.61;100.00
2785;BME280;57944;48.722;9.316;2023-04-28T00:12:23;97883.66;;;10.71;100.00
2785;BME280;57944;48.722;9.316;2023-04-28T00:14:53;97875.41;;;10.82;100.00
2785;BME280;57944;48.722;9.316;2023-04-28T00:17:22;97882.06;;;10.83;100.00
2785;BME280;57944;48.722;9.316;2023-04-28T00:19:55;97875.03;;;10.92;100.00
2785;BME280;57944;48.722;9.316;2023-04-28T00:22:25;97858.53;;;11.08;100.00
2785;BME280;57944;48.722;9.316;2023-04-28T00:24:56;97863.63;;;11.28;100.00
2785;BME280;57944;48.722;9.316;2023-04-28T00:27:26;97873.06;;;11.21;100.00
2785;BME280;57944;48.722;9.316;2023-04-28T00:29:56;97859.69;;;11.25;100.00
2785;BME280;57944;48.722;9.316;2023-04-28T00:32:26;97859.47;;;11.33;100.00
2785;BME280;57944;48.722;9.316;2023-04-28T00:34:58;97856.34;;;11.25;100.00
2785;BME280;57944;48.722;9.316;2023-04-28T00:37:28;97850.09;;;11.21;100.00
2785;BME280;57944;48.722;9.316;2023-04-28T00:39:58;97851.09;;;11.06;100.00
2785;BME280;57944;48.722;9.316;2023-04-28T00:42:29;97853.06;;;10.78;100.00
2785;BME280;57944;48.722;9.316;2023-04-28T00:45:03;97853.06;;;10.91;100.00
2785;BME280;57944;48.722;9.316;2023-04-28T00:47:36;97846.00;;;11.00;100.00
2785;BME280;57944;48.722;9.316;2023-04-28T00:50:09;97840.50;;;11.03;100.00
2785;BME280;57944;48.722;9.316;2023-04-28T00:52:39;97833.84;;;11.02;100.00
2785;BME280;57944;48.722;9.316;2023-04-28T00:55:09;97843.25;;;10.94;100.00
2785;BME280;57944;48.722;9.316;2023-04-28T00:57:39;97847.56;;;10.87;100.00
2785;BME280;57944;48.722;9.316;2023-04-28T01:00:10;97849.13;;;11.02;100.00
2785;BME280;57944;48.722;9.316;2023-04-28T01:02:41;97841.88;;;11.05;100.00
2785;BME280;57944;48.722;9.316;2023-04-28T01:05:14;97836.78;;;11.12;100.00
2785;BME280;57944;48.722;9.316;2023-04-28T01:07:45;97835.19;;;11.11;100.00
2785;BME280;57944;48.722;9.316;2023-04-28T01:10:16;97833.22;;;11.19;100.00
2785;BME280;57944;48.722;9.316;2023-04-28T01:12:46;97822.78;;;11.34;100.00
2785;BME280;57944;48.722;9.316;2023-04-28T01:15:17;97826.28;;;11.47;100.00
2785;BME280;57944;48.722;9.316;2023-04-28T01:17:51;97826.63;;;11.63;100.00
2785;BME280;57944;48.722;9.316;2023-04-28T01:20:24;97818.38;;;11.61;100.00
2785;BME280;57944;48.722;9.316;2023-04-28T01:22:54;97822.97;;;11.46;100.00
2785;BME280;57944;48.722;9.316;2023-04-28T01:25:27;97821.19;;;11.47;100.00
2785;BME280;57944;48.722;9.316;2023-04-28T01:27:57;97823.00;;;11.39;100.00
2785;BME280;57944;48.722;9.316;2023-04-28T01:30:27;97818.44;;;11.41;100.00
2785;BME280;57944;48.722;9.316;2023-04-28T01:32:57;97818.09;;;11.31;100.00
2785;BME280;57944;48.722;9.316;2023-04-28T01:35:27;97818.84;;;11.38;100.00
2785;BME280;57944;48.722;9.316;2023-04-28T01:37:57;97811.22;;;11.32;100.00
2785;BME280;57944;48.722;9.316;2023-04-28T01:40:30;97817.47;;;11.36;100.00
2785;BME280;57944;48.722;9.316;2023-04-28T01:43:00;97808.66;;;11.38;100.00
2785;BME280;57944;48.722;9.316;2023-04-28T01:45:30;97807.28;;;11.36;100.00
2785;BME280;57944;48.722;9.316;2023-04-28T01:48:00;97809.84;;;11.29;100.00
2785;BME280;57944;48.722;9.316;2023-04-28T01:50:30;97808.69;;;11.18;100.00
2785;BME280;57944;48.722;9.316;2023-04-28T01:53:02;97805.16;;;11.19;100.00
2785;BME280;57944;48.722;9.316;2023-04-28T01:55:34;97806.75;;;11.21;100.00
2785;BME280;57944;48.722;9.316;2023-04-28T01:58:04;97803.38;;;11.27;100.00
2785;BME280;57944;48.722;9.316;2023-04-28T02:00:34;97797.50;;;11.26;100.00
2785;BME280;57944;48.722;9.316;2023-04-28T02:03:05;97783.94;;;11.32;100.00
2785;BME280;57944;48.722;9.316;2023-04-28T02:05:35;97794.34;;;11.24;100.00
2785;BME280;57944;48.722;9.316;2023-04-28T02:08:05;97798.13;;;11.02;100.00
2785;BME280;57944;48.722;9.316;2023-04-28T02:10:38;97795.41;;;10.96;100.00
2785;BME280;57944;48.722;9.316;2023-04-28T02:13:08;97788.94;;;11.01;100.00
2785;BME280;57944;48.722;9.316;2023-04-28T02:15:39;97788.31;;;11.05;100.00
2785;BME280;57944;48.722;9.316;2023-04-28T02:18:09;97792.25;;;11.14;100.00
2785;BME280;57944;48.722;9.316;2023-04-28T02:20:39;97773.38;;;11.22;100.00
2785;BME280;57944;48.722;9.316;2023-04-28T02:23:09;97769.56;;;11.45;100.00
2785;BME280;57944;48.722;9.316;2023-04-28T02:25:41;97765.59;;;11.62;100.00
2785;BME280;57944;48.722;9.316;2023-04-28T02:28:12;97765.81;;;11.54;100.00
2785;BME280;57944;48.722;9.316;2023-04-28T02:30:42;97778.03;;;11.45;100.00
2785;BME280;57944;48.722;9.316;2023-04-28T02:33:12;97781.22;;;11.21;100.00
2785;BME280;57944;48.722;9.316;2023-04-28T02:35:42;97786.31;;;11.14;100.00
2785;BME280;57944;48.722;9.316;2023-04-28T02:38:12;97776.09;;;11.27;100.00
2785;BME280;57944;48.722;9.316;2023-04-28T02:40:44;97774.91;;;11.30;100.00
2785;BME280;57944;48.722;9.316;2023-04-28T02:43:14;97765.47;;;11.37;100.00
2785;BME280;57944;48.722;9.316;2023-04-28T02:45:45;97756.78;;;11.45;100.00
2785;BME280;57944;48.722;9.316;2023-04-28T02:48:15;97768.53;;;11.59;100.00
2785;BME280;57944;48.722;9.316;2023-04-28T02:50:45;97767.97;;;11.50;100.00
2785;BME280;57944;48.722;9.316;2023-04-28T02:53:15;97761.91;;;11.45;100.00
2785;BME280;57944;48.722;9.316;2023-04-28T02:55:48;97772.94;;;11.38;100.00
2785;BME280;57944;48.722;9.316;2023-04-28T02:58:18;97772.34;;;11.36;100.00
2785;BME280;57944;48.722;9.316;2023-04-28T03:00:48;97771.59;;;11.29;100.00
2785;BME280;57944;48.722;9.316;2023-04-28T03:03:18;97767.09;;;11.18;100.00
2785;BME280;57944;48.722;9.316;2023-04-28T03:05:48;97772.63;;;11.15;100.00
2785;BME280;57944;48.722;9.316;2023-04-28T03:08:18;97770.69;;;10.97;100.00
2785;BME280;57944;48.722;9.316;2023-04-28T03:10:51;97771.88;;;10.74;100.00
2785;BME280;57944;48.722;9.316;2023-04-28T03:13:21;97771.53;;;10.64;100.00
2785;BME280;57944;48.722;9.316;2023-04-28T03:15:51;97767.19;;;10.58;100.00
2785;BME280;57944;48.722;9.316;2023-04-28T03:18:22;97769.75;;;10.51;100.00
2785;BME280;57944;48.722;9.316;2023-04-28T03:20:54;97766.81;;;10.48;100.00
2785;BME280;57944;48.722;9.316;2023-04-28T03:23:25;97766.59;;;10.49;100.00
2785;BME280;57944;48.722;9.316;2023-04-28T03:25:58;97765.63;;;10.64;100.00
2785;BME280;57944;48.722;9.316;2023-04-28T03:28:28;97769.13;;;10.83;100.00
2785;BME280;57944;48.722;9.316;2023-04-28T03:30:59;97754.66;;;10.70;100.00
2785;BME280;57944;48.722;9.316;2023-04-28T03:33:29;97757.38;;;10.55;100.00
2785;BME280;57944;48.722;9.316;2023-04-28T03:35:59;97754.66;;;10.30;100.00
2785;BME280;57944;48.722;9.316;2023-04-28T03:38:30;97749.13;;;10.20;100.00
2785;BME280;57944;48.722;9.316;2023-04-28T03:41:03;97750.88;;;10.19;100.00
2785;BME280;57944;48.722;9.316;2023-04-28T03:43:51;97749.56;;;10.30;100.00
2785;BME280;57944;48.722;9.316;2023-04-28T03:46:30;97749.56;;;10.57;100.00
2785;BME280;57944;48.722;9.316;2023-04-28T03:49:01;97742.31;;;10.54;100.00
2785;BME280;57944;48.722;9.316;2023-04-28T03:51:31;97749.19;;;10.40;100.00
2785;BME280;57944;48.722;9.316;2023-04-28T03:54:01;97751.91;;;10.45;100.00
2785;BME280;57944;48.722;9.316;2023-04-28T03:56:34;97760.53;;;10.50;100.00
2785;BME280;57944;48.722;9.316;2023-04-28T03:59:04;97751.13;;;10.44;100.00
2785;BME280;57944;48.722;9.316;2023-04-28T04:01:34;97745.25;;;10.37;100.00
2785;BME280;57944;48.722;9.316;2023-04-28T04:04:04;97748.00;;;10.29;100.00
2785;BME280;57944;48.722;9.316;2023-04-28T04:06:35;97741.09;;;10.16;100.00
2785;BME280;57944;48.722;9.316;2023-04-28T04:09:05;97738.53;;;10.10;100.00
2785;BME280;57944;48.722;9.316;2023-04-28T04:11:37;97740.09;;;9.97;100.00
2785;BME280;57944;48.722;9.316;2023-04-28T04:14:07;97738.31;;;9.91;100.00
2785;BME280;57944;48.722;9.316;2023-04-28T04:16:38;97738.53;;;9.90;100.00
2785;BME280;57944;48.722;9.316;2023-04-28T04:19:08;97742.81;;;9.82;100.00
2785;BME280;57944;48.722;9.316;2023-04-28T04:21:40;97731.66;;;9.83;100.00
2785;BME280;57944;48.722;9.316;2023-04-28T04:24:10;97740.84;;;9.91;100.00
2785;BME280;57944;48.722;9.316;2023-04-28T04:26:43;97734.03;;;9.98;100.00
2785;BME280;57944;48.722;9.316;2023-04-28T04:29:25;97736.78;;;10.17;100.00
2785;BME280;57944;48.722;9.316;2023-04-28T04:31:55;97729.75;;;10.25;100.00
2785;BME280;57944;48.722;9.316;2023-04-28T04:34:26;97731.69;;;10.23;100.00
2785;BME280;57944;48.722;9.316;2023-04-28T04:36:56;97720.13;;;10.21;100.00
2785;BME280;57944;48.722;9.316;2023-04-28T04:39:26;97729.94;;;10.24;100.00
2785;BME280;57944;48.722;9.316;2023-04-28T04:41:59;97722.69;;;10.21;100.00
2785;BME280;57944;48.722;9.316;2023-04-28T04:45:06;97730.91;;;10.23;100.00
2785;BME280;57944;48.722;9.316;2023-04-28T04:47:36;97732.66;;;10.16;100.00
2785;BME280;57944;48.722;9.316;2023-04-28T04:50:10;97735.78;;;10.11;100.00
2785;BME280;57944;48.722;9.316;2023-04-28T04:52:41;97735.00;;;10.11;100.00
2785;BME280;57944;48.722;9.316;2023-04-28T04:55:11;97740.91;;;10.18;100.00
2785;BME280;57944;48.722;9.316;2023-04-28T04:57:44;97736.97;;;10.22;100.00
2785;BME280;57944;48.722;9.316;2023-04-28T05:00:34;97742.13;;;10.28;100.00
2785;BME280;57944;48.722;9.316;2023-04-28T05:03:04;97743.28;;;10.33;100.00
2785;BME280;57944;48.722;9.316;2023-04-28T05:05:35;97737.78;;;10.22;100.00
2785;BME280;57944;48.722;9.316;2023-04-28T05:08:17;97737.41;;;10.32;100.00
2785;BME280;57944;48.722;9.316;2023-04-28T05:10:47;97735.25;;;10.29;100.00
2785;BME280;57944;48.722;9.316;2023-04-28T05:13:21;97739.38;;;10.37;100.00
2785;BME280;57944;48.722;9.316;2023-04-28T05:15:57;97732.13;;;10.40;100.00
2785;BME280;57944;48.722;9.316;2023-04-28T05:18:36;97732.69;;;10.49;100.00
2785;BME280;57944;48.722;9.316;2023-04-28T05:21:06;97734.25;;;10.50;100.00
2785;BME280;57944;48.722;9.316;2023-04-28T05:23:37;97734.88;;;10.45;100.00
2785;BME280;57944;48.722;9.316;2023-04-28T05:26:08;97740.56;;;10.34;100.00
2785;BME280;57944;48.722;9.316;2023-04-28T05:28:41;97735.06;;;10.44;100.00
2785;BME280;57944;48.722;9.316;2023-04-28T05:31:11;97744.84;;;10.60;100.00
2785;BME280;57944;48.722;9.316;2023-04-28T05:33:41;97742.88;;;10.69;100.00
2785;BME280;57944;48.722;9.316;2023-04-28T05:36:11;97740.13;;;10.77;100.00
2785;BME280;57944;48.722;9.316;2023-04-28T05:38:44;97745.59;;;10.81;100.00
2785;BME280;57944;48.722;9.316;2023-04-28T05:41:14;97747.97;;;10.76;100.00
2785;BME280;57944;48.722;9.316;2023-04-28T05:43:47;97749.34;;;10.78;100.00
2785;BME280;57944;48.722;9.316;2023-04-28T05:46:18;97747.19;;;10.75;100.00
2785;BME280;57944;48.722;9.316;2023-04-28T05:48:57;97748.00;;;10.62;100.00
2785;BME280;57944;48.722;9.316;2023-04-28T05:51:32;97740.53;;;10.61;100.00
2785;BME280;57944;48.722;9.316;2023-04-28T05:54:02;97736.81;;;10.57;100.00
2785;BME280;57944;48.722;9.316;2023-04-28T05:56:39;97738.00;;;10.41;100.00
2785;BME280;57944;48.722;9.316;2023-04-28T05:59:11;97746.63;;;10.46;100.00
2785;BME280;57944;48.722;9.316;2023-04-28T06:01:42;97747.59;;;10.59;100.00
2785;BME280;57944;48.722;9.316;2023-04-28T06:04:12;97738.19;;;10.59;100.00
2785;BME280;57944;48.722;9.316;2023-04-28T06:06:43;97746.22;;;10.63;100.00
2785;BME280;57944;48.722;9.316;2023-04-28T06:09:13;97740.75;;;10.59;100.00
2785;BME280;57944;48.722;9.316;2023-04-28T06:11:44;97743.28;;;10.52;100.00
2785;BME280;57944;48.722;9.316;2023-04-28T06:14:16;97746.22;;;10.49;100.00
2785;BME280;57944;48.722;9.316;2023-04-28T06:16:46;97741.34;;;10.48;100.00
2785;BME280;57944;48.722;9.316;2023-04-28T06:19:16;97739.75;;;10.54;100.00
2785;BME280;57944;48.722;9.316;2023-04-28T06:21:47;97737.03;;;10.62;100.00
2785;BME280;57944;48.722;9.316;2023-04-28T06:24:19;97738.56;;;10.63;100.00
2785;BME280;57944;48.722;9.316;2023-04-28T06:26:52;97737.41;;;10.65;100.00
2785;BME280;57944;48.722;9.316;2023-04-28T06:29:24;97740.13;;;10.77;100.00
2785;BME280;57944;48.722;9.316;2023-04-28T06:31:55;97738.13;;;10.86;100.00
2785;BME280;57944;48.722;9.316;2023-04-28T06:34:26;97730.31;;;10.87;100.00
2785;BME280;57944;48.722;9.316;2023-04-28T06:36:57;97729.13;;;10.83;100.00
2785;BME280;57944;48.722;9.316;2023-04-28T06:39:27;97721.88;;;10.80;100.00
2785;BME280;57944;48.722;9.316;2023-04-28T06:41:58;97721.31;;;10.71;100.00
2785;BME280;57944;48.722;9.316;2023-04-28T06:44:33;97718.75;;;10.71;100.00
2785;BME280;57944;48.722;9.316;2023-04-28T06:47:03;97715.00;;;10.81;100.00
2785;BME280;57944;48.722;9.316;2023-04-28T06:49:33;97712.06;;;10.77;100.00
2785;BME280;57944;48.722;9.316;2023-04-28T06:52:03;97715.41;;;10.78;100.00
2785;BME280;57944;48.722;9.316;2023-04-28T06:54:33;97712.28;;;10.76;100.00
2785;BME280;57944;48.722;9.316;2023-04-28T06:57:07;97717.19;;;10.77;100.00
2785;BME280;57944;48.722;9.316;2023-04-28T06:59:40;97708.94;;;10.75;100.00
2785;BME280;57944;48.722;9.316;2023-04-28T07:02:12;97702.09;;;10.69;100.00
2785;BME280;57944;48.722;9.316;2023-04-28T07:04:42;97707.97;;;10.69;100.00
2785;BME280;57944;48.722;9.316;2023-04-28T07:07:13;97704.44;;;10.77;100.00
2785;BME280;57944;48.722;9.316;2023-04-28T07:09:43;97712.25;;;10.89;100.00
2785;BME280;57944;48.722;9.316;2023-04-28T07:12:13;97705.75;;;11.00;100.00
2785;BME280;57944;48.722;9.316;2023-04-28T07:14:45;97701.59;;;11.12;100.00
2785;BME280;57944;48.722;9.316;2023-04-28T07:17:16;97694.88;;;11.24;100.00
2785;BME280;57944;48.722;9.316;2023-04-28T07:19:46;97702.06;;;11.40;100.00
2785;BME280;57944;48.722;9.316;2023-04-28T07:22:16;97690.22;;;11.53;100.00
2785;BME280;57944;48.722;9.316;2023-04-28T07:24:46;97694.66;;;11.64;100.00
2785;BME280;57944;48.722;9.316;2023-04-28T07:27:17;97694.56;;;11.84;100.00
2785;BME280;57944;48.722;9.316;2023-04-28T07:29:50;97691.03;;;11.85;100.00
2785;BME280;57944;48.722;9.316;2023-04-28T07:32:21;97689.06;;;11.87;100.00
2785;BME280;57944;48.722;9.316;2023-04-28T07:34:51;97681.16;;;11.95;100.00
2785;BME280;57944;48.722;9.316;2023-04-28T07:37:20;97680.94;;;11.97;100.00
2785;BME280;57944;48.722;9.316;2023-04-28T07:39:51;97684.91;;;11.93;100.00
2785;BME280;57944;48.722;9.316;2023-04-28T07:42:21;97682.25;;;12.06;100.00
2785;BME280;57944;48.722;9.316;2023-04-28T07:44:53;97681.72;;;12.22;100.00
2785;BME280;57944;48.722;9.316;2023-04-28T07:47:24;97680.06;;;12.35;100.00
2785;BME280;57944;48.722;9.316;2023-04-28T07:49:55;97684.47;;;12.46;100.00
2785;BME280;57944;48.722;9.316;2023-04-28T07:52:26;97680.66;;;12.55;100.00
2785;BME280;57944;48.722;9.316;2023-04-28T07:54:56;97680.94;;;12.65;100.00
2785;BME280;57944;48.722;9.316;2023-04-28T07:57:26;97687.28;;;12.63;100.00
2785;BME280;57944;48.722;9.316;2023-04-28T07:59:59;97684.88;;;12.68;100.00
2785;BME280;57944;48.722;9.316;2023-04-28T08:02:37;97681.22;;;12.75;100.00
2785;BME280;57944;48.722;9.316;2023-04-28T08:05:08;97674.69;;;12.61;100.00
2785;BME280;57944;48.722;9.316;2023-04-28T08:07:38;97687.28;;;12.63;100.00
2785;BME280;57944;48.722;9.316;2023-04-28T08:10:11;97699.13;;;12.57;100.00
2785;BME280;57944;48.722;9.316;2023-04-28T08:12:41;97698.22;;;12.45;100.00
2785;BME280;57944;48.722;9.316;2023-04-28T08:15:13;97712.28;;;12.36;100.00
2785;BME280;57944;48.722;9.316;2023-04-28T08:17:44;97704.69;;;12.29;100.00
2785;BME280;57944;48.722;9.316;2023-04-28T08:20:14;97699.25;;;12.44;100.00
2785;BME280;57944;48.722;9.316;2023-04-28T08:22:49;97710.25;;;12.44;100.00
2785;BME280;57944;48.722;9.316;2023-04-28T08:25:19;97704.50;;;12.49;100.00
2785;BME280;57944;48.722;9.316;2023-04-28T08:27:49;97707.47;;;12.46;100.00
2785;BME280;57944;48.722;9.316;2023-04-28T08:30:24;97710.75;;;12.53;100.00
2785;BME280;57944;48.722;9.316;2023-04-28T08:32:54;97707.72;;;12.63;100.00
2785;BME280;57944;48.722;9.316;2023-04-28T08:35:24;97715.91;;;12.71;100.00
2785;BME280;57944;48.722;9.316;2023-04-28T08:37:54;97713.97;;;12.67;100.00
2785;BME280;57944;48.722;9.316;2023-04-28T08:40:24;97718.19;;;12.80;100.00
2785;BME280;57944;48.722;9.316;2023-04-28T08:42:57;97717.03;;;12.94;100.00
2785;BME280;57944;48.722;9.316;2023-04-28T08:45:40;97717.88;;;13.06;100.00
2785;BME280;57944;48.722;9.316;2023-04-28T08:48:17;97730.34;;;12.84;100.00
2785;BME280;57944;48.722;9.316;2023-04-28T08:50:50;97735.69;;;12.58;100.00
2785;BME280;57944;48.722;9.316;2023-04-28T08:53:22;97739.59;;;12.60;100.00
2785;BME280;57944;48.722;9.316;2023-04-28T08:55:55;97744.09;;;12.65;100.00
2785;BME280;57944;48.722;9.316;2023-04-28T08:58:26;97742.47;;;12.89;100.00
2785;BME280;57944;48.722;9.316;2023-04-28T09:00:59;97747.00;;;12.68;100.00
2785;BME280;57944;48.722;9.316;2023-04-28T09:03:30;97743.75;;;12.98;100.00
2785;BME280;57944;48.722;9.316;2023-04-28T09:06:01;97748.59;;;13.06;100.00
2785;BME280;57944;48.722;9.316;2023-04-28T09:08:31;97754.72;;;13.24;100.00
2785;BME280;57944;48.722;9.316;2023-04-28T09:11:05;97752.31;;;13.29;100.00
2785;BME280;57944;48.722;9.316;2023-04-28T09:13:36;97762.91;;;13.32;100.00
2785;BME280;57944;48.722;9.316;2023-04-28T09:16:09;97756.66;;;13.28;100.00
2785;BME280;57944;48.722;9.316;2023-04-28T09:18:39;97763.13;;;13.31;100.00
2785;BME280;57944;48.722;9.316;2023-04-28T09:21:19;97764.38;;;13.58;100.00
2785;BME280;57944;48.722;9.316;2023-04-28T09:23:49;97762.91;;;13.81;100.00
2785;BME280;57944;48.722;9.316;2023-04-28T09:26:19;97761.78;;;13.77;100.00
2785;BME280;57944;48.722;9.316;2023-04-28T09:28:50;97760.59;;;13.91;100.00
2785;BME280;57944;48.722;9.316;2023-04-28T09:31:25;97763.19;;;14.03;100.00
2785;BME280;57944;48.722;9.316;2023-04-28T09:33:56;97761.66;;;14.14;100.00
2785;BME280;57944;48.722;9.316;2023-04-28T09:36:27;97761.16;;;14.35;100.00
2785;BME280;57944;48.722;9.316;2023-04-28T09:38:59;97770.19;;;14.38;100.00
2785;BME280;57944;48.722;9.316;2023-04-28T09:41:36;97767.78;;;14.55;100.00
2785;BME280;57944;48.722;9.316;2023-04-28T09:44:11;97759.28;;;14.66;100.00
2785;BME280;57944;48.722;9.316;2023-04-28T09:46:45;97764.19;;;14.91;100.00
2785;BME280;57944;48.722;9.316;2023-04-28T09:49:16;97763.78;;;15.34;100.00
2785;BME280;57944;48.722;9.316;2023-04-28T09:51:45;97770.84;;;15.27;100.00
2785;BME280;57944;48.722;9.316;2023-04-28T09:54:16;97765.63;;;15.51;100.00
2785;BME280;57944;48.722;9.316;2023-04-28T09:56:50;97763.25;;;15.61;100.00
2785;BME280;57944;48.722;9.316;2023-04-28T09:59:20;97757.53;;;16.16;100.00
2785;BME280;57944;48.722;9.316;2023-04-28T10:01:52;97761.63;;;16.68;100.00
2785;BME280;57944;48.722;9.316;2023-04-28T10:04:23;97758.53;;;16.49;100.00
2785;BME280;57944;48.722;9.316;2023-04-28T10:06:58;97766.13;;;16.39;100.00
2785;BME280;57944;48.722;9.316;2023-04-28T10:09:29;97758.91;;;16.74;100.00
2785;BME280;57944;48.722;9.316;2023-04-28T10:12:01;97758.25;;;17.23;100.00
2785;BME280;57944;48.722;9.316;2023-04-28T10:14:32;97763.88;;;17.91;100.00
2785;BME280;57944;48.722;9.316;2023-04-28T10:17:05;97756.59;;;18.52;100.00
2785;BME280;57944;48.722;9.316;2023-04-28T10:19:35;97756.91;;;18.98;100.00
2785;BME280;57944;48.722;9.316;2023-04-28T10:22:28;97762.25;;;19.50;100.00
2785;BME280;57944;48.722;9.316;2023-04-28T10:25:23;97760.16;;;19.41;100.00
2785;BME280;57944;48.722;9.316;2023-04-28T10:27:53;97763.53;;;18.79;100.00
2785;BME280;57944;48.722;9.316;2023-04-28T10:30:24;97760.16;;;19.47;100.00
2785;BME280;57944;48.722;9.316;2023-04-28T10:33:25;97757.09;;;19.45;100.00
2785;BME280;57944;48.722;9.316;2023-04-28T10:35:56;97754.41;;;19.24;100.00
2785;BME280;57944;48.722;9.316;2023-04-28T10:38:26;97759.66;;;19.45;100.00
2785;BME280;57944;48.722;9.316;2023-04-28T10:40:56;97753.91;;;19.27;100.00
2785;BME280;57944;48.722;9.316;2023-04-28T10:43:35;97753.91;;;19.17;100.00
2785;BME280;57944;48.722;9.316;2023-04-28T10:46:07;97760.03;;;19.06;100.00
2785;BME280;57944;48.722;9.316;2023-04-28T10:48:57;97758.41;;;18.89;100.00
2785;BME280;57944;48.722;9.316;2023-04-28T10:51:28;97755.34;;;19.03;100.00
2785;BME280;57944;48.722;9.316;2023-04-28T10:54:13;97758.47;;;19.05;100.00
2785;BME280;57944;48.722;9.316;2023-04-28T10:57:15;97760.00;;;18.53;100.00
2785;BME280;57944;48.722;9.316;2023-04-28T10:59:48;97757.75;;;18.29;100.00
2785;BME280;57944;48.722;9.316;2023-04-28T11:02:37;97750.53;;;17.99;100.00
2785;BME280;57944;48.722;9.316;2023-04-28T11:05:17;97754.25;;;17.81;100.00
2785;BME280;57944;48.722;9.316;2023-04-28T11:11:18;97757.09;;;18.49;100.00
2785;BME280;57944;48.722;9.316;2023-04-28T11:13:48;97760.53;;;18.97;100.00
2785;BME280;57944;48.722;9.316;2023-04-28T11:16:20;97762.16;;;19.24;100.00
2785;BME280;57944;48.722;9.316;2023-04-28T11:18:56;97747.88;;;20.15;100.00
2785;BME280;57944;48.722;9.316;2023-04-28T11:21:33;97758.53;;;21.19;100.00
2785;BME280;57944;48.722;9.316;2023-04-28T11:24:08;97758.09;;;21.07;100.00
2785;BME280;57944;48.722;9.316;2023-04-28T11:26:39;97763.28;;;21.07;100.00
2785;BME280;57944;48.722;9.316;2023-04-28T11:29:10;97757.09;;;20.93;100.00
2785;BME280;57944;48.722;9.316;2023-04-28T11:31:48;97759.50;;;20.64;100.00
2785;BME280;57944;48.722;9.316;2023-04-28T11:34:19;97766.25;;;20.34;100.00
2785;BME280;57944;48.722;9.316;2023-04-28T11:36:52;97764.69;;;20.07;100.00
2785;BME280;57944;48.722;9.316;2023-04-28T11:39:26;97756.91;;;20.33;100.00
2785;BME280;57944;48.722;9.316;2023-04-28T11:42:00;97756.59;;;20.86;100.00
2785;BME280;57944;48.722;9.316;2023-04-28T11:44:30;97757.69;;;20.49;100.00
2785;BME280;57944;48.722;9.316;2023-04-28T11:47:02;97754.59;;;20.16;100.00
2785;BME280;57944;48.722;9.316;2023-04-28T11:49:41;97751.25;;;20.57;100.00
2785;BME280;57944;48.722;9.316;2023-04-28T11:52:15;97744.69;;;20.85;100.00
2785;BME280;57944;48.722;9.316;2023-04-28T11:54:52;97740.50;;;20.94;100.00
2785;BME280;57944;48.722;9.316;2023-04-28T11:57:22;97740.94;;;21.16;100.00
2785;BME280;57944;48.722;9.316;2023-04-28T11:59:53;97736.84;;;21.00;100.00
2785;BME280;57944;48.722;9.316;2023-04-28T12:02:24;97741.28;;;20.89;100.00
2785;BME280;57944;48.722;9.316;2023-04-28T12:05:04;97727.09;;;21.41;100.00
2785;BME280;57944;48.722;9.316;2023-04-28T12:07:42;97733.44;;;22.04;100.00
2785;BME280;57944;48.722;9.316;2023-04-28T12:10:13;97734.09;;;22.15;100.00
2785;BME280;57944;48.722;9.316;2023-04-28T12:12:45;97744.88;;;22.37;100.00
2785;BME280;57944;48.722;9.316;2023-04-28T12:15:19;97740.59;;;22.46;100.00
2785;BME280;57944;48.722;9.316;2023-04-28T12:17:51;97739.19;;;22.30;100.00
2785;BME280;57944;48.722;9.316;2023-04-28T12:20:35;97744.69;;;21.50;100.00
2785;BME280;57944;48.722;9.316;2023-04-28T12:23:08;97742.16;;;21.34;100.00
2785;BME280;57944;48.722;9.316;2023-04-28T12:25:44;97735.88;;;21.51;100.00
2785;BME280;57944;48.722;9.316;2023-04-28T12:28:14;97728.63;;;21.87;100.00
2785;BME280;57944;48.722;9.316;2023-04-28T12:30:44;97727.03;;;22.55;100.00
2785;BME280;57944;48.722;9.316;2023-04-28T12:33:21;97734.88;;;22.49;98.82
2785;BME280;57944;48.722;9.316;2023-04-28T12:35:53;97734.53;;;22.80;96.60
2785;BME280;57944;48.722;9.316;2023-04-28T12:38:26;97738.31;;;22.69;95.65
2785;BME280;57944;48.722;9.316;2023-04-28T12:40:56;97742.56;;;21.96;100.00
2785;BME280;57944;48.722;9.316;2023-04-28T12:43:26;97742.31;;;21.53;100.00
2785;BME280;57944;48.722;9.316;2023-04-28T12:45:56;97737.94;;;20.84;100.00
2785;BME280;57944;48.722;9.316;2023-04-28T12:48:26;97742.84;;;20.95;100.00
2785;BME280;57944;48.722;9.316;2023-04-28T12:50:57;97735.00;;;21.16;100.00
2785;BME280;57944;48.722;9.316;2023-04-28T12:53:30;97734.75;;;21.07;100.00
2785;BME280;57944;48.722;9.316;2023-04-28T12:56:00;97730.13;;;20.99;100.00
2785;BME280;57944;48.722;9.316;2023-04-28T12:58:30;97720.84;;;21.48;100.00
2785;BME280;57944;48.722;9.316;2023-04-28T13:01:00;97735.13;;;21.45;100.00
2785;BME280;57944;48.722;9.316;2023-04-28T13:03:30;97732.13;;;21.17;100.00
2785;BME280;57944;48.722;9.316;2023-04-28T13:06:02;97724.28;;;20.68;100.00
2785;BME280;57944;48.722;9.316;2023-04-28T13:08:35;97721.44;;;20.39;100.00
2785;BME280;57944;48.722;9.316;2023-04-28T13:11:05;97719.66;;;20.29;100.00
2785;BME280;57944;48.722;9.316;2023-04-28T13:13:48;97727.19;;;19.90;100.00
2785;BME280;57944;48.722;9.316;2023-04-28T13:16:19;97724.66;;;18.59;100.00
2785;BME280;57944;48.722;9.316;2023-04-28T13:18:51;97722.59;;;17.86;100.00
2785;BME280;57944;48.722;9.316;2023-04-28T13:21:21;97711.63;;;18.01;100.00
2785;BME280;57944;48.722;9.316;2023-04-28T13:23:55;97710.09;;;18.00;100.00
2785;BME280;57944;48.722;9.316;2023-04-28T13:26:25;97694.25;;;18.23;100.00
2785;BME280;57944;48.722;9.316;2023-04-28T13:28:56;97669.16;;;19.29;100.00
2785;BME280;57944;48.722;9.316;2023-04-28T13:31:26;97679.38;;;20.98;100.00